sensor_id;sensor_type;location;lat;lon;timestamp;pressure;altitude;pressure_sealevel;temperature;humidity
67931;BME280;63902;52.000;5.954;2023-09-08T00:00:23;101356.72;;;18.75;79.63
67931;BME280;63902;52.000;5.954;2023-09-08T00:01:24;101354.91;;;18.76;79.09
67931;BME280;63902;52.000;5.954;2023-09-08T00:02:24;101359.31;;;18.77;79.19
67931;BME280;63902;52.000;5.954;2023-09-08T00:03:25;101357.59;;;18.76;79.20
67931;BME280;63902;52.000;5.954;2023-09-08T00:04:26;101358.56;;;18.75;79.17
67931;BME280;63902;52.000;5.954;2023-09-08T00:05:26;101352.22;;;18.76;79.07
67931;BME280;63902;52.000;5.954;2023-09-08T00:06:27;101353.94;;;18.77;79.21
67931;BME280;63902;52.000;5.954;2023-09-08T00:07:27;101350.41;;;18.76;79.13
67931;BME280;63902;52.000;5.954;2023-09-08T00:08:28;101351.25;;;18.77;79.28
67931;BME280;63902;52.000;5.954;2023-09-08T00:09:28;101352.22;;;18.76;79.26
67931;BME280;63902;52.000;5.954;2023-09-08T00:10:29;101352.38;;;18.73;79.24
67931;BME280;63902;52.000;5.954;2023-09-08T00:11:30;101355.28;;;18.70;79.36
67931;BME280;63902;52.000;5.954;2023-09-08T00:12:31;101360.84;;;18.67;79.46
67931;BME280;63902;52.000;5.954;2023-09-08T00:13:31;101359.16;;;18.66;79.24
67931;BME280;63902;52.000;5.954;2023-09-08T00:14:32;101358.38;;;18.64;79.63
67931;BME280;63902;52.000;5.954;2023-09-08T00:15:34;101357.72;;;18.60;79.34
67931;BME280;63902;52.000;5.954;2023-09-08T00:16:35;101355.25;;;18.57;79.84
67931;BME280;63902;52.000;5.954;2023-09-08T00:17:35;101353.63;;;18.54;80.15
67931;BME280;63902;52.000;5.954;2023-09-08T00:18:36;101364.56;;;18.51;79.93
67931;BME280;63902;52.000;5.954;2023-09-08T00:19:36;101362.06;;;18.48;79.91
67931;BME280;63902;52.000;5.954;2023-09-08T00:20:37;101364.00;;;18.46;80.04
67931;BME280;63902;52.000;5.954;2023-09-08T00:21:37;101362.38;;;18.44;80.76
67931;BME280;63902;52.000;5.954;2023-09-08T00:22:38;101359.78;;;18.42;80.60
67931;BME280;63902;52.000;5.954;2023-09-08T00:23:39;101362.66;;;18.39;80.49
67931;BME280;63902;52.000;5.954;2023-09-08T00:24:39;101361.91;;;18.37;81.05
67931;BME280;63902;52.000;5.954;2023-09-08T00:25:40;101356.84;;;18.32;80.64
67931;BME280;63902;52.000;5.954;2023-09-08T00:26:41;101361.44;;;18.30;81.44
67931;BME280;63902;52.000;5.954;2023-09-08T00:27:41;101356.28;;;18.27;81.00
67931;BME280;63902;52.000;5.954;2023-09-08T00:28:42;101367.09;;;18.26;81.22
67931;BME280;63902;52.000;5.954;2023-09-08T00:29:42;101363.88;;;18.21;81.43
67931;BME280;63902;52.000;5.954;2023-09-08T00:30:44;101360.44;;;18.19;82.20
67931;BME280;63902;52.000;5.954;2023-09-08T00:31:44;101359.84;;;18.14;81.73
67931;BME280;63902;52.000;5.954;2023-09-08T00:32:45;101360.91;;;18.11;82.02
67931;BME280;63902;52.000;5.954;2023-09-08T00:33:45;101358.34;;;18.09;82.08
67931;BME280;63902;52.000;5.954;2023-09-08T00:34:46;101365.63;;;18.07;82.10
67931;BME280;63902;52.000;5.954;2023-09-08T00:35:48;101362.16;;;18.05;82.42
67931;BME280;63902;52.000;5.954;2023-09-08T00:36:49;101361.41;;;18.03;82.40
67931;BME280;63902;52.000;5.954;2023-09-08T00:37:49;101363.34;;;18.01;82.95
67931;BME280;63902;52.000;5.954;2023-09-08T00:38:50;101364.28;;;18.00;82.71
67931;BME280;63902;52.000;5.954;2023-09-08T00:39:50;101357.41;;;17.96;83.10
67931;BME280;63902;52.000;5.954;2023-09-08T00:40:51;101353.09;;;17.94;83.24
67931;BME280;63902;52.000;5.954;2023-09-08T00:41:51;101358.44;;;17.94;83.25
67931;BME280;63902;52.000;5.954;2023-09-08T00:42:51;101356.91;;;17.89;83.27
67931;BME280;63902;52.000;5.954;2023-09-08T00:43:52;101360.56;;;17.88;83.28
67931;BME280;63902;52.000;5.954;2023-09-08T00:44:52;101359.69;;;17.88;83.17
67931;BME280;63902;52.000;5.954;2023-09-08T00:45:55;101357.22;;;17.85;82.92
67931;BME280;63902;52.000;5.954;2023-09-08T00:46:56;101362.66;;;17.83;83.51
67931;BME280;63902;52.000;5.954;2023-09-08T00:47:56;101356.44;;;17.83;83.07
67931;BME280;63902;52.000;5.954;2023-09-08T00:48:57;101361.81;;;17.83;83.00
67931;BME280;63902;52.000;5.954;2023-09-08T00:49:57;101366.41;;;17.81;83.24
67931;BME280;63902;52.000;5.954;2023-09-08T00:50:59;101365.66;;;17.79;83.38
67931;BME280;63902;52.000;5.954;2023-09-08T00:52:00;101368.38;;;17.77;83.21
67931;BME280;63902;52.000;5.954;2023-09-08T00:53:00;101369.44;;;17.75;83.59
67931;BME280;63902;52.000;5.954;2023-09-08T00:54:01;101359.88;;;17.71;83.90
67931;BME280;63902;52.000;5.954;2023-09-08T00:55:01;101361.84;;;17.67;83.96
67931;BME280;63902;52.000;5.954;2023-09-08T00:56:02;101364.66;;;17.65;83.83
67931;BME280;63902;52.000;5.954;2023-09-08T00:57:04;101361.13;;;17.65;84.25
67931;BME280;63902;52.000;5.954;2023-09-08T00:58:04;101353.25;;;17.62;84.07
67931;BME280;63902;52.000;5.954;2023-09-08T00:59:05;101358.81;;;17.59;84.06
67931;BME280;63902;52.000;5.954;2023-09-08T01:00:07;101360.63;;;17.58;84.25
67931;BME280;63902;52.000;5.954;2023-09-08T01:01:09;101357.94;;;17.58;84.51
67931;BME280;63902;52.000;5.954;2023-09-08T01:02:10;101353.72;;;17.54;84.46
67931;BME280;63902;52.000;5.954;2023-09-08T01:03:11;101361.97;;;17.51;84.81
67931;BME280;63902;52.000;5.954;2023-09-08T01:04:11;101363.88;;;17.49;84.53
67931;BME280;63902;52.000;5.954;2023-09-08T01:05:12;101362.03;;;17.50;84.76
67931;BME280;63902;52.000;5.954;2023-09-08T01:06:13;101362.16;;;17.48;84.72
67931;BME280;63902;52.000;5.954;2023-09-08T01:07:15;101355.06;;;17.47;84.36
67931;BME280;63902;52.000;5.954;2023-09-08T01:08:16;101356.97;;;17.45;84.80
67931;BME280;63902;52.000;5.954;2023-09-08T01:09:17;101358.69;;;17.46;84.60
67931;BME280;63902;52.000;5.954;2023-09-08T01:10:19;101359.66;;;17.45;84.54
67931;BME280;63902;52.000;5.954;2023-09-08T01:11:20;101347.31;;;17.42;84.85
67931;BME280;63902;52.000;5.954;2023-09-08T01:12:21;101359.81;;;17.42;85.01
67931;BME280;63902;52.000;5.954;2023-09-08T01:13:21;101362.50;;;17.42;85.27
67931;BME280;63902;52.000;5.954;2023-09-08T01:14:22;101359.94;;;17.40;85.11
67931;BME280;63902;52.000;5.954;2023-09-08T01:15:22;101355.63;;;17.38;85.32
67931;BME280;63902;52.000;5.954;2023-09-08T01:16:24;101359.16;;;17.38;85.30
67931;BME280;63902;52.000;5.954;2023-09-08T01:17:25;101355.81;;;17.35;85.07
67931;BME280;63902;52.000;5.954;2023-09-08T01:18:26;101355.88;;;17.33;85.08
67931;BME280;63902;52.000;5.954;2023-09-08T01:19:26;101355.16;;;17.31;85.26
67931;BME280;63902;52.000;5.954;2023-09-08T01:20:30;101352.72;;;17.27;85.20
67931;BME280;63902;52.000;5.954;2023-09-08T01:23:06;101356.56;;;17.22;85.76
67931;BME280;63902;52.000;5.954;2023-09-08T01:24:21;101356.56;;;17.22;85.16
67931;BME280;63902;52.000;5.954;2023-09-08T01:25:30;101354.03;;;17.19;85.54
67931;BME280;63902;52.000;5.954;2023-09-08T01:26:35;101350.50;;;17.19;85.06
67931;BME280;63902;52.000;5.954;2023-09-08T01:27:37;101350.63;;;17.17;85.35
67931;BME280;63902;52.000;5.954;2023-09-08T01:28:40;101353.38;;;17.16;85.46
67931;BME280;63902;52.000;5.954;2023-09-08T01:29:41;101354.41;;;17.13;85.64
67931;BME280;63902;52.000;5.954;2023-09-08T01:30:42;101350.03;;;17.12;85.44
67931;BME280;63902;52.000;5.954;2023-09-08T01:31:43;101344.06;;;17.07;85.60
67931;BME280;63902;52.000;5.954;2023-09-08T01:32:44;101348.56;;;17.07;85.93
67931;BME280;63902;52.000;5.954;2023-09-08T01:33:45;101345.03;;;17.06;86.16
67931;BME280;63902;52.000;5.954;2023-09-08T01:34:46;101344.19;;;17.06;86.25
67931;BME280;63902;52.000;5.954;2023-09-08T01:35:46;101342.34;;;17.06;85.95
67931;BME280;63902;52.000;5.954;2023-09-08T01:36:47;101349.53;;;17.06;86.06
67931;BME280;63902;52.000;5.954;2023-09-08T01:37:48;101343.47;;;17.02;86.17
67931;BME280;63902;52.000;5.954;2023-09-08T01:38:49;101349.88;;;16.99;86.61
67931;BME280;63902;52.000;5.954;2023-09-08T01:39:50;101345.56;;;16.97;86.42
67931;BME280;63902;52.000;5.954;2023-09-08T01:40:51;101342.13;;;16.95;86.46
67931;BME280;63902;52.000;5.954;2023-09-08T01:41:52;101349.31;;;16.94;86.88
67931;BME280;63902;52.000;5.954;2023-09-08T01:42:53;101343.06;;;16.94;86.88
67931;BME280;63902;52.000;5.954;2023-09-08T01:43:54;101350.34;;;16.92;86.90
67931;BME280;63902;52.000;5.954;2023-09-08T01:44:54;101352.16;;;16.91;86.66
67931;BME280;63902;52.000;5.954;2023-09-08T01:45:55;101346.91;;;16.90;86.55
67931;BME280;63902;52.000;5.954;2023-09-08T01:46:55;101344.41;;;16.87;86.89
67931;BME280;63902;52.000;5.954;2023-09-08T01:47:55;101355.97;;;16.87;87.14
67931;BME280;63902;52.000;5.954;2023-09-08T01:48:56;101354.25;;;16.86;87.10
67931;BME280;63902;52.000;5.954;2023-09-08T01:49:56;101346.31;;;16.85;87.07
67931;BME280;63902;52.000;5.954;2023-09-08T01:50:57;101349.25;;;16.80;87.17
67931;BME280;63902;52.000;5.954;2023-09-08T01:51:57;101347.53;;;16.79;87.36
67931;BME280;63902;52.000;5.954;2023-09-08T01:52:58;101346.66;;;16.78;87.55
67931;BME280;63902;52.000;5.954;2023-09-08T01:53:58;101341.47;;;16.75;87.37
67931;BME280;63902;52.000;5.954;2023-09-08T01:54:59;101351.41;;;16.73;87.32
67931;BME280;63902;52.000;5.954;2023-09-08T01:56:01;101345.25;;;16.71;87.38
67931;BME280;63902;52.000;5.954;2023-09-08T01:57:01;101345.25;;;16.71;87.40
67931;BME280;63902;52.000;5.954;2023-09-08T01:58:02;101344.41;;;16.71;87.42
67931;BME280;63902;52.000;5.954;2023-09-08T01:59:02;101343.63;;;16.69;87.65
67931;BME280;63902;52.000;5.954;2023-09-08T02:00:04;101338.38;;;16.67;87.94
67931;BME280;63902;52.000;5.954;2023-09-08T02:01:04;101338.38;;;16.67;87.57
67931;BME280;63902;52.000;5.954;2023-09-08T02:02:05;101337.75;;;16.62;88.12
67931;BME280;63902;52.000;5.954;2023-09-08T02:03:06;101341.97;;;16.66;87.97
67931;BME280;63902;52.000;5.954;2023-09-08T02:04:06;101338.53;;;16.64;87.98
67931;BME280;63902;52.000;5.954;2023-09-08T02:05:07;101330.78;;;16.60;88.21
67931;BME280;63902;52.000;5.954;2023-09-08T02:06:07;101340.63;;;16.59;87.90
67931;BME280;63902;52.000;5.954;2023-09-08T02:07:08;101337.09;;;16.59;88.32
67931;BME280;63902;52.000;5.954;2023-09-08T02:08:08;101338.03;;;16.58;88.51
67931;BME280;63902;52.000;5.954;2023-09-08T02:09:11;101344.41;;;16.55;88.28
67931;BME280;63902;52.000;5.954;2023-09-08T02:10:12;101343.56;;;16.54;88.38
67931;BME280;63902;52.000;5.954;2023-09-08T02:11:13;101353.41;;;16.54;87.85
67931;BME280;63902;52.000;5.954;2023-09-08T02:12:14;101337.53;;;16.51;88.60
67931;BME280;63902;52.000;5.954;2023-09-08T02:13:14;101344.78;;;16.49;88.73
67931;BME280;63902;52.000;5.954;2023-09-08T02:14:15;101336.75;;;16.49;88.11
67931;BME280;63902;52.000;5.954;2023-09-08T02:15:16;101342.22;;;16.47;88.41
67931;BME280;63902;52.000;5.954;2023-09-08T02:16:16;101341.34;;;16.47;88.43
67931;BME280;63902;52.000;5.954;2023-09-08T02:17:17;101340.47;;;16.46;88.80
67931;BME280;63902;52.000;5.954;2023-09-08T02:18:18;101339.72;;;16.44;88.25
67931;BME280;63902;52.000;5.954;2023-09-08T02:19:18;101346.16;;;16.40;88.63
67931;BME280;63902;52.000;5.954;2023-09-08T02:20:19;101347.03;;;16.41;88.65
67931;BME280;63902;52.000;5.954;2023-09-08T02:21:19;101344.34;;;16.41;88.69
67931;BME280;63902;52.000;5.954;2023-09-08T02:22:19;101348.78;;;16.42;88.75
67931;BME280;63902;52.000;5.954;2023-09-08T02:23:20;101341.78;;;16.39;88.74
67931;BME280;63902;52.000;5.954;2023-09-08T02:24:20;101343.59;;;16.39;88.76
67931;BME280;63902;52.000;5.954;2023-09-08T02:25:23;101346.34;;;16.37;89.01
67931;BME280;63902;52.000;5.954;2023-09-08T02:26:25;101339.34;;;16.34;88.87
67931;BME280;63902;52.000;5.954;2023-09-08T02:27:25;101342.03;;;16.34;89.02
67931;BME280;63902;52.000;5.954;2023-09-08T02:28:26;101334.09;;;16.33;89.05
67931;BME280;63902;52.000;5.954;2023-09-08T02:29:26;101342.22;;;16.31;88.92
67931;BME280;63902;52.000;5.954;2023-09-08T02:30:27;101336.84;;;16.31;89.40
67931;BME280;63902;52.000;5.954;2023-09-08T02:31:28;101345.84;;;16.30;88.95
67931;BME280;63902;52.000;5.954;2023-09-08T02:32:28;101338.75;;;16.29;88.86
67931;BME280;63902;52.000;5.954;2023-09-08T02:33:28;101340.66;;;16.27;89.43
67931;BME280;63902;52.000;5.954;2023-09-08T02:34:29;101338.91;;;16.26;89.18
67931;BME280;63902;52.000;5.954;2023-09-08T02:35:29;101337.22;;;16.25;89.51
67931;BME280;63902;52.000;5.954;2023-09-08T02:36:30;101337.28;;;16.24;89.51
67931;BME280;63902;52.000;5.954;2023-09-08T02:37:30;101333.75;;;16.23;89.50
67931;BME280;63902;52.000;5.954;2023-09-08T02:38:31;101332.88;;;16.23;89.53
67931;BME280;63902;52.000;5.954;2023-09-08T02:39:32;101336.53;;;16.22;89.12
67931;BME280;63902;52.000;5.954;2023-09-08T02:40:33;101332.09;;;16.21;89.83
67931;BME280;63902;52.000;5.954;2023-09-08T02:41:35;101337.56;;;16.19;89.48
67931;BME280;63902;52.000;5.954;2023-09-08T02:42:35;101338.50;;;16.18;89.65
67931;BME280;63902;52.000;5.954;2023-09-08T02:43:36;101331.41;;;16.17;89.50
67931;BME280;63902;52.000;5.954;2023-09-08T02:44:36;101340.41;;;16.16;89.66
67931;BME280;63902;52.000;5.954;2023-09-08T02:45:37;101335.97;;;16.15;89.48
67931;BME280;63902;52.000;5.954;2023-09-08T02:46:37;101334.28;;;16.14;89.73
67931;BME280;63902;52.000;5.954;2023-09-08T02:47:38;101339.69;;;16.13;89.83
67931;BME280;63902;52.000;5.954;2023-09-08T02:48:39;101344.19;;;16.12;89.73
67931;BME280;63902;52.000;5.954;2023-09-08T02:49:40;101333.59;;;16.10;89.89
67931;BME280;63902;52.000;5.954;2023-09-08T02:50:40;101332.69;;;16.10;89.56
67931;BME280;63902;52.000;5.954;2023-09-08T02:51:40;101339.88;;;16.09;90.11
67931;BME280;63902;52.000;5.954;2023-09-08T02:52:41;101334.63;;;16.08;89.86
67931;BME280;63902;52.000;5.954;2023-09-08T02:53:41;101332.88;;;16.07;90.13
67931;BME280;63902;52.000;5.954;2023-09-08T02:54:42;101339.19;;;16.06;89.86
67931;BME280;63902;52.000;5.954;2023-09-08T02:55:42;101333.91;;;16.04;89.80
67931;BME280;63902;52.000;5.954;2023-09-08T02:56:44;101331.16;;;16.06;89.82
67931;BME280;63902;52.000;5.954;2023-09-08T02:57:45;101331.34;;;16.03;89.36
67931;BME280;63902;52.000;5.954;2023-09-08T02:58:45;101334.78;;;16.05;90.09
67931;BME280;63902;52.000;5.954;2023-09-08T02:59:49;101334.94;;;16.02;90.03
67931;BME280;63902;52.000;5.954;2023-09-08T03:00:49;101338.56;;;16.01;89.75
67931;BME280;63902;52.000;5.954;2023-09-08T03:01:50;101338.56;;;16.01;90.17
67931;BME280;63902;52.000;5.954;2023-09-08T03:02:50;101336.94;;;15.98;90.17
67931;BME280;63902;52.000;5.954;2023-09-08T03:03:51;101340.47;;;15.99;90.20
67931;BME280;63902;52.000;5.954;2023-09-08T03:04:51;101336.94;;;15.98;90.10
67931;BME280;63902;52.000;5.954;2023-09-08T03:05:53;101338.75;;;15.98;90.46
67931;BME280;63902;52.000;5.954;2023-09-08T03:06:54;101337.78;;;15.99;90.13
67931;BME280;63902;52.000;5.954;2023-09-08T03:07:54;101337.03;;;15.97;90.22
67931;BME280;63902;52.000;5.954;2023-09-08T03:08:55;101345.06;;;15.97;90.28
67931;BME280;63902;52.000;5.954;2023-09-08T03:09:55;101342.56;;;15.94;90.38
67931;BME280;63902;52.000;5.954;2023-09-08T03:10:56;101338.22;;;15.91;90.38
67931;BME280;63902;52.000;5.954;2023-09-08T03:11:59;101343.47;;;15.93;90.64
67931;BME280;63902;52.000;5.954;2023-09-08T03:12:59;101342.63;;;15.92;90.63
67931;BME280;63902;52.000;5.954;2023-09-08T03:14:00;101341.66;;;15.93;90.56
67931;BME280;63902;52.000;5.954;2023-09-08T03:15:00;101341.66;;;15.93;90.12
67931;BME280;63902;52.000;5.954;2023-09-08T03:16:02;101338.22;;;15.91;90.23
67931;BME280;63902;52.000;5.954;2023-09-08T03:17:03;101337.34;;;15.91;90.42
67931;BME280;63902;52.000;5.954;2023-09-08T03:18:04;101340.03;;;15.91;90.21
67931;BME280;63902;52.000;5.954;2023-09-08T03:19:05;101340.97;;;15.89;90.45
67931;BME280;63902;52.000;5.954;2023-09-08T03:20:07;101344.63;;;15.88;90.50
67931;BME280;63902;52.000;5.954;2023-09-08T03:21:09;101339.34;;;15.87;90.49
67931;BME280;63902;52.000;5.954;2023-09-08T03:22:10;101342.13;;;15.85;90.50
67931;BME280;63902;52.000;5.954;2023-09-08T03:23:10;101343.91;;;15.85;90.59
67931;BME280;63902;52.000;5.954;2023-09-08T03:24:11;101336.75;;;15.85;90.78
67931;BME280;63902;52.000;5.954;2023-09-08T03:25:13;101341.31;;;15.83;90.97
67931;BME280;63902;52.000;5.954;2023-09-08T03:26:14;101338.72;;;15.82;90.83
67931;BME280;63902;52.000;5.954;2023-09-08T03:27:16;101338.81;;;15.80;91.20
67931;BME280;63902;52.000;5.954;2023-09-08T03:28:16;101337.00;;;15.81;91.19
67931;BME280;63902;52.000;5.954;2023-09-08T03:29:17;101336.31;;;15.77;90.91
67931;BME280;63902;52.000;5.954;2023-09-08T03:30:17;101339.00;;;15.77;91.30
67931;BME280;63902;52.000;5.954;2023-09-08T03:31:18;101337.16;;;15.78;91.05
67931;BME280;63902;52.000;5.954;2023-09-08T03:32:18;101333.63;;;15.77;91.20
67931;BME280;63902;52.000;5.954;2023-09-08T03:33:19;101333.72;;;15.76;91.40
67931;BME280;63902;52.000;5.954;2023-09-08T03:34:19;101333.81;;;15.74;91.50
67931;BME280;63902;52.000;5.954;2023-09-08T03:35:20;101335.59;;;15.74;91.57
67931;BME280;63902;52.000;5.954;2023-09-08T03:36:20;101336.56;;;15.73;91.26
67931;BME280;63902;52.000;5.954;2023-09-08T03:37:21;101336.66;;;15.71;91.55
67931;BME280;63902;52.000;5.954;2023-09-08T03:38:22;101340.25;;;15.70;91.65
67931;BME280;63902;52.000;5.954;2023-09-08T03:39:22;101333.09;;;15.71;91.53
67931;BME280;63902;52.000;5.954;2023-09-08T03:40:23;101331.38;;;15.70;91.33
67931;BME280;63902;52.000;5.954;2023-09-08T03:41:23;101336.72;;;15.70;91.55
67931;BME280;63902;52.000;5.954;2023-09-08T03:42:25;101337.69;;;15.69;91.38
67931;BME280;63902;52.000;5.954;2023-09-08T03:43:26;101326.09;;;15.68;91.92
67931;BME280;63902;52.000;5.954;2023-09-08T03:44:26;101334.13;;;15.68;91.48
67931;BME280;63902;52.000;5.954;2023-09-08T03:45:27;101335.03;;;15.67;91.50
67931;BME280;63902;52.000;5.954;2023-09-08T03:46:27;101330.72;;;15.64;92.07
67931;BME280;63902;52.000;5.954;2023-09-08T03:47:28;101327.25;;;15.62;91.63
67931;BME280;63902;52.000;5.954;2023-09-08T03:48:28;101331.56;;;15.65;91.90
67931;BME280;63902;52.000;5.954;2023-09-08T03:49:29;101325.38;;;15.64;91.92
67931;BME280;63902;52.000;5.954;2023-09-08T03:50:29;101331.56;;;15.65;91.84
67931;BME280;63902;52.000;5.954;2023-09-08T03:51:30;101324.50;;;15.64;91.99
67931;BME280;63902;52.000;5.954;2023-09-08T03:52:30;101328.91;;;15.65;91.79
67931;BME280;63902;52.000;5.954;2023-09-08T03:53:31;101332.44;;;15.65;91.98
67931;BME280;63902;52.000;5.954;2023-09-08T03:54:33;101324.50;;;15.64;91.96
67931;BME280;63902;52.000;5.954;2023-09-08T03:55:33;101331.69;;;15.63;91.94
67931;BME280;63902;52.000;5.954;2023-09-08T03:56:33;101330.72;;;15.64;91.85
67931;BME280;63902;52.000;5.954;2023-09-08T03:57:35;101330.81;;;15.63;91.91
67931;BME280;63902;52.000;5.954;2023-09-08T03:58:36;101333.56;;;15.61;91.91
67931;BME280;63902;52.000;5.954;2023-09-08T03:59:36;101326.56;;;15.59;92.12
67931;BME280;63902;52.000;5.954;2023-09-08T04:00:37;101328.38;;;15.58;92.25
67931;BME280;63902;52.000;5.954;2023-09-08T04:01:37;101330.19;;;15.58;92.13
67931;BME280;63902;52.000;5.954;2023-09-08T04:02:38;101323.09;;;15.57;92.00
67931;BME280;63902;52.000;5.954;2023-09-08T04:03:38;101324.00;;;15.57;92.14
67931;BME280;63902;52.000;5.954;2023-09-08T04:04:39;101324.84;;;15.58;92.35
67931;BME280;63902;52.000;5.954;2023-09-08T04:05:39;101327.53;;;15.58;92.42
67931;BME280;63902;52.000;5.954;2023-09-08T04:06:41;101330.19;;;15.58;92.17
67931;BME280;63902;52.000;5.954;2023-09-08T04:07:41;101325.88;;;15.55;92.24
67931;BME280;63902;52.000;5.954;2023-09-08T04:08:41;101326.81;;;15.54;92.19
67931;BME280;63902;52.000;5.954;2023-09-08T04:09:42;101325.09;;;15.53;92.25
67931;BME280;63902;52.000;5.954;2023-09-08T04:10:43;101324.22;;;15.53;92.61
67931;BME280;63902;52.000;5.954;2023-09-08T04:11:43;101321.56;;;15.53;92.10
67931;BME280;63902;52.000;5.954;2023-09-08T04:12:45;101329.56;;;15.53;92.46
67931;BME280;63902;52.000;5.954;2023-09-08T04:13:45;101321.72;;;15.50;92.18
67931;BME280;63902;52.000;5.954;2023-09-08T04:14:46;101326.97;;;15.51;92.25
67931;BME280;63902;52.000;5.954;2023-09-08T04:15:47;101325.19;;;15.52;92.35
67931;BME280;63902;52.000;5.954;2023-09-08T04:16:47;101319.06;;;15.50;92.31
67931;BME280;63902;52.000;5.954;2023-09-08T04:17:48;101321.72;;;15.50;92.47
67931;BME280;63902;52.000;5.954;2023-09-08T04:18:48;101324.41;;;15.50;92.45
67931;BME280;63902;52.000;5.954;2023-09-08T04:19:49;101325.31;;;15.49;92.59
67931;BME280;63902;52.000;5.954;2023-09-08T04:20:49;101328.00;;;15.49;92.50
67931;BME280;63902;52.000;5.954;2023-09-08T04:21:49;101329.81;;;15.48;92.74
67931;BME280;63902;52.000;5.954;2023-09-08T04:22:50;101325.44;;;15.47;92.78
67931;BME280;63902;52.000;5.954;2023-09-08T04:23:50;101325.50;;;15.45;92.96
67931;BME280;63902;52.000;5.954;2023-09-08T04:24:51;101321.09;;;15.44;92.77
67931;BME280;63902;52.000;5.954;2023-09-08T04:25:51;101318.50;;;15.43;92.86
67931;BME280;63902;52.000;5.954;2023-09-08T04:26:52;101322.06;;;15.43;93.03
67931;BME280;63902;52.000;5.954;2023-09-08T04:27:54;101316.72;;;15.43;92.84
67931;BME280;63902;52.000;5.954;2023-09-08T04:28:54;101316.72;;;15.43;93.25
67931;BME280;63902;52.000;5.954;2023-09-08T04:29:55;101314.97;;;15.42;92.71
67931;BME280;63902;52.000;5.954;2023-09-08T04:30:55;101317.63;;;15.42;93.23
67931;BME280;63902;52.000;5.954;2023-09-08T04:31:56;101315.81;;;15.43;92.80
67931;BME280;63902;52.000;5.954;2023-09-08T04:32:56;101324.81;;;15.42;93.22
67931;BME280;63902;52.000;5.954;2023-09-08T04:33:57;101318.59;;;15.41;93.03
67931;BME280;63902;52.000;5.954;2023-09-08T04:34:57;101322.22;;;15.40;92.82
67931;BME280;63902;52.000;5.954;2023-09-08T04:35:58;101323.16;;;15.39;93.05
67931;BME280;63902;52.000;5.954;2023-09-08T04:36:58;101316.09;;;15.38;93.46
67931;BME280;63902;52.000;5.954;2023-09-08T04:37:59;101325.81;;;15.39;93.24
67931;BME280;63902;52.000;5.954;2023-09-08T04:38:59;101321.34;;;15.40;93.17
67931;BME280;63902;52.000;5.954;2023-09-08T04:39:59;101316.88;;;15.40;92.92
67931;BME280;63902;52.000;5.954;2023-09-08T04:41:00;101316.88;;;15.40;93.25
67931;BME280;63902;52.000;5.954;2023-09-08T04:42:01;101324.09;;;15.38;93.09
67931;BME280;63902;52.000;5.954;2023-09-08T04:43:03;101317.00;;;15.37;93.23
67931;BME280;63902;52.000;5.954;2023-09-08T04:44:04;101321.50;;;15.37;93.30
67931;BME280;63902;52.000;5.954;2023-09-08T04:45:05;101324.09;;;15.38;93.24
67931;BME280;63902;52.000;5.954;2023-09-08T04:46:06;101320.47;;;15.39;93.08
67931;BME280;63902;52.000;5.954;2023-09-08T04:47:07;101323.25;;;15.38;93.09
67931;BME280;63902;52.000;5.954;2023-09-08T04:48:07;101320.66;;;15.36;93.52
67931;BME280;63902;52.000;5.954;2023-09-08T04:49:08;101319.78;;;15.36;93.32
67931;BME280;63902;52.000;5.954;2023-09-08T04:50:09;101330.47;;;15.36;93.38
67931;BME280;63902;52.000;5.954;2023-09-08T04:51:09;101325.13;;;15.36;93.15
67931;BME280;63902;52.000;5.954;2023-09-08T04:52:10;101321.50;;;15.37;93.18
67931;BME280;63902;52.000;5.954;2023-09-08T04:53:11;101317.00;;;15.37;93.39
67931;BME280;63902;52.000;5.954;2023-09-08T04:54:12;101328.59;;;15.38;93.13
67931;BME280;63902;52.000;5.954;2023-09-08T04:55:12;101320.66;;;15.36;93.21
67931;BME280;63902;52.000;5.954;2023-09-08T04:56:13;101325.13;;;15.36;93.41
67931;BME280;63902;52.000;5.954;2023-09-08T04:57:14;101321.59;;;15.35;93.61
67931;BME280;63902;52.000;5.954;2023-09-08T04:58:16;101324.28;;;15.35;93.60
67931;BME280;63902;52.000;5.954;2023-09-08T04:59:16;101327.88;;;15.34;93.38
67931;BME280;63902;52.000;5.954;2023-09-08T05:00:17;101326.16;;;15.33;93.81
67931;BME280;63902;52.000;5.954;2023-09-08T05:01:18;101320.75;;;15.35;93.38
67931;BME280;63902;52.000;5.954;2023-09-08T05:02:18;101325.19;;;15.34;93.82
67931;BME280;63902;52.000;5.954;2023-09-08T05:03:19;101325.19;;;15.34;93.29
67931;BME280;63902;52.000;5.954;2023-09-08T05:04:21;101319.84;;;15.34;93.38
67931;BME280;63902;52.000;5.954;2023-09-08T05:05:21;101326.16;;;15.33;93.25
67931;BME280;63902;52.000;5.954;2023-09-08T05:06:22;101321.66;;;15.34;93.41
67931;BME280;63902;52.000;5.954;2023-09-08T05:07:22;101329.69;;;15.34;93.63
67931;BME280;63902;52.000;5.954;2023-09-08T05:08:23;101325.28;;;15.33;93.33
67931;BME280;63902;52.000;5.954;2023-09-08T05:09:23;101325.19;;;15.34;93.41
67931;BME280;63902;52.000;5.954;2023-09-08T05:10:24;101323.47;;;15.33;93.49
67931;BME280;63902;52.000;5.954;2023-09-08T05:11:24;101319.09;;;15.32;93.43
67931;BME280;63902;52.000;5.954;2023-09-08T05:12:25;101328.81;;;15.33;93.69
67931;BME280;63902;52.000;5.954;2023-09-08T05:13:27;101324.44;;;15.32;93.49
67931;BME280;63902;52.000;5.954;2023-09-08T05:14:27;101322.53;;;15.34;93.38
67931;BME280;63902;52.000;5.954;2023-09-08T05:15:28;101326.16;;;15.33;93.25
67931;BME280;63902;52.000;5.954;2023-09-08T05:16:28;101320.81;;;15.33;93.67
67931;BME280;63902;52.000;5.954;2023-09-08T05:17:29;101321.78;;;15.32;93.49
67931;BME280;63902;52.000;5.954;2023-09-08T05:18:29;101319.09;;;15.32;93.62
67931;BME280;63902;52.000;5.954;2023-09-08T05:19:30;101320.88;;;15.32;93.93